Time;durP1;ratioP1;P1;durP2;ratioP2;P2;SDS_P1;SDS_P2;PMS_P1;PMS_P2;Temp;Humidity;BMP_temperature;BMP_pressure;BME280_temperature;BME280_humidity;BME280_pressure;Samples;Min_cycle;Max_cycle;Signal;HPM_P1;HPM_P2
2023/09/21 00:00:59;;;;;;;5.05;2.10;;;18.00;99.90;;;;;;4984802;28;20026;-83
2023/09/21 00:03:28;;;;;;;3.72;2.25;;;18.10;99.90;;;;;;4987378;28;20052;-83
2023/09/21 00:05:55;;;;;;;3.15;2.10;;;17.80;99.90;;;;;;4966672;28;20046;-83
2023/09/21 00:08:22;;;;;;;3.88;2.22;;;17.70;99.90;;;;;;4988008;28;20046;-83
2023/09/21 00:10:48;;;;;;;3.50;2.22;;;17.80;99.90;;;;;;4987532;28;20047;-83
2023/09/21 00:13:14;;;;;;;3.22;2.17;;;17.60;99.90;;;;;;4989456;28;20133;-84
2023/09/21 00:15:43;;;;;;;4.20;2.35;;;18.60;99.90;;;;;;4958051;28;20050;-83
2023/09/21 00:18:08;;;;;;;4.20;2.38;;;18.70;99.90;;;;;;4992309;28;20911;-83
2023/09/21 00:20:43;;;;;;;4.20;2.13;;;17.40;99.90;;;;;;4990517;28;20042;-83
2023/09/21 00:23:09;;;;;;;4.68;1.98;;;17.80;99.90;;;;;;4991719;28;20050;-83
2023/09/21 00:25:36;;;;;;;7.55;2.30;;;17.70;99.90;;;;;;4989732;28;20034;-82
2023/09/21 00:28:11;;;;;;;3.85;2.30;;;18.20;99.90;;;;;;4973793;28;20129;-82
2023/09/21 00:30:37;;;;;;;3.05;2.20;;;18.00;99.90;;;;;;4989575;28;20625;-81
2023/09/21 00:33:07;;;;;;;3.70;2.50;;;17.60;99.90;;;;;;4990028;28;20050;-81
2023/09/21 00:35:40;;;;;;;3.85;2.40;;;17.60;99.90;;;;;;4989499;28;20053;-81
2023/09/21 00:38:08;;;;;;;5.80;2.30;;;17.80;99.90;;;;;;4990463;28;20104;-81
2023/09/21 00:40:38;;;;;;;4.97;2.85;;;17.40;99.90;;;;;;4971693;28;20100;-81
2023/09/21 00:43:09;;;;;;;4.53;2.53;;;17.60;99.90;;;;;;4990565;28;20078;-82
2023/09/21 00:45:46;;;;;;;2.92;2.13;;;17.30;99.90;;;;;;4990791;28;20046;-81
2023/09/21 00:48:12;;;;;;;3.50;2.13;;;17.90;99.90;;;;;;4991434;28;20096;-81
2023/09/21 00:50:41;;;;;;;4.30;2.42;;;17.60;99.90;;;;;;4991480;28;20061;-82
2023/09/21 00:53:12;;;;;;;6.28;2.58;;;17.30;99.90;;;;;;4973704;28;20046;-83
2023/09/21 00:55:39;;;;;;;2.97;2.23;;;17.20;99.90;;;;;;4967252;28;20447;-82
2023/09/21 00:58:05;;;;;;;3.78;2.00;;;17.30;99.90;;;;;;4970731;28;20081;-82
2023/09/21 01:00:32;;;;;;;3.20;2.50;;;17.50;99.90;;;;;;4970747;28;20050;-82
2023/09/21 01:03:07;;;;;;;4.47;2.40;;;17.20;99.90;;;;;;4972590;28;20050;-82
2023/09/21 01:05:34;;;;;;;4.03;2.33;;;17.60;99.90;;;;;;4971900;28;20051;-82
2023/09/21 01:08:00;;;;;;;2.90;2.00;;;17.40;99.90;;;;;;4989971;28;20046;-82
2023/09/21 01:10:26;;;;;;;4.20;2.05;;;17.20;99.90;;;;;;4971833;28;20092;-81
2023/09/21 01:12:53;;;;;;;3.17;2.22;;;17.20;99.90;;;;;;4960893;28;20055;-81
2023/09/21 01:15:21;;;;;;;3.20;2.33;;;18.30;99.90;;;;;;4976492;28;20046;-82
2023/09/21 01:17:46;;;;;;;3.00;2.13;;;17.60;99.90;;;;;;4990582;28;20093;-81
2023/09/21 01:20:23;;;;;;;3.55;2.38;;;17.50;99.90;;;;;;4972332;28;20050;-81
2023/09/21 01:23:14;;;;;;;3.25;2.20;;;17.60;99.90;;;;;;4956527;28;20085;-80
2023/09/21 01:25:42;;;;;;;4.30;2.13;;;17.90;99.90;;;;;;4972621;28;20058;-82
2023/09/21 01:28:09;;;;;;;2.42;1.85;;;17.40;99.90;;;;;;4970552;28;20069;-82
2023/09/21 01:30:41;;;;;;;3.40;2.10;;;17.80;99.90;;;;;;4962700;28;20184;-82
2023/09/21 01:33:11;;;;;;;4.43;2.25;;;17.80;99.90;;;;;;4991048;28;20635;-82
2023/09/21 01:35:43;;;;;;;3.20;2.00;;;18.20;99.90;;;;;;4972787;28;20053;-82
2023/09/21 01:38:09;;;;;;;2.78;2.13;;;17.70;99.90;;;;;;4973846;28;20050;-81
2023/09/21 01:40:36;;;;;;;4.40;2.10;;;17.80;99.90;;;;;;4981402;28;20050;-81
2023/09/21 01:43:16;;;;;;;6.57;2.25;;;17.60;99.90;;;;;;4973761;28;20085;-81
2023/09/21 01:45:44;;;;;;;3.45;2.08;;;18.80;99.90;;;;;;4990483;28;20042;-81
2023/09/21 01:48:11;;;;;;;2.03;1.67;;;18.10;99.90;;;;;;4957413;28;20126;-82
2023/09/21 01:50:40;;;;;;;4.43;2.30;;;17.80;99.90;;;;;;4968977;28;20416;-81
2023/09/21 01:53:17;;;;;;;3.85;2.30;;;18.50;99.90;;;;;;4972889;28;20414;-82
2023/09/21 01:55:47;;;;;;;2.40;1.95;;;18.50;99.90;;;;;;4988755;28;20038;-82
2023/09/21 01:58:14;;;;;;;3.30;2.17;;;17.80;99.90;;;;;;4970880;28;20058;-82
2023/09/21 02:00:41;;;;;;;3.33;2.20;;;18.20;99.90;;;;;;4971844;28;20039;-81
2023/09/21 02:03:12;;;;;;;3.03;2.20;;;17.90;99.90;;;;;;4972642;28;20046;-82
2023/09/21 02:05:42;;;;;;;2.30;1.92;;;17.90;99.90;;;;;;4970968;28;20458;-82
2023/09/21 02:08:09;;;;;;;3.10;2.20;;;18.00;99.90;;;;;;4989838;28;20048;-82
2023/09/21 02:10:36;;;;;;;2.83;2.03;;;18.10;99.90;;;;;;4970674;28;20766;-81
2023/09/21 02:13:06;;;;;;;3.35;1.90;;;18.00;99.90;;;;;;4989891;28;20093;-82
2023/09/21 02:15:40;;;;;;;2.80;1.63;;;18.00;99.90;;;;;;4971379;28;20121;-82
2023/09/21 02:18:10;;;;;;;3.65;1.92;;;17.90;99.90;;;;;;4988802;28;20086;-82
2023/09/21 02:20:44;;;;;;;2.05;1.83;;;18.10;99.90;;;;;;4987565;28;20104;-82
2023/09/21 02:23:10;;;;;;;2.25;1.80;;;17.50;99.90;;;;;;4987746;28;20525;-83
2023/09/21 02:25:40;;;;;;;6.00;2.38;;;17.60;99.90;;;;;;4970846;28;20057;-82
2023/09/21 02:28:09;;;;;;;3.13;1.77;;;18.50;99.90;;;;;;4989371;28;20367;-83
2023/09/21 02:30:37;;;;;;;2.45;1.70;;;17.40;99.90;;;;;;4988909;28;20049;-83
2023/09/21 02:33:07;;;;;;;2.88;2.10;;;18.20;99.90;;;;;;4989528;28;20057;-83
2023/09/21 02:35:33;;;;;;;3.38;2.13;;;17.90;99.90;;;;;;4970666;28;20181;-83
2023/09/21 02:38:00;;;;;;;2.00;1.80;;;18.70;99.90;;;;;;4965421;28;20060;-81
2023/09/21 02:40:26;;;;;;;2.72;1.80;;;17.60;99.90;;;;;;4984002;28;20043;-81
2023/09/21 02:42:54;;;;;;;2.78;2.08;;;17.70;99.90;;;;;;4988821;28;20104;-81
2023/09/21 02:45:25;;;;;;;3.88;1.73;;;17.50;99.90;;;;;;4988800;28;20038;-82
2023/09/21 02:47:54;;;;;;;3.20;1.73;;;17.60;99.90;;;;;;4971773;28;20058;-82
2023/09/21 02:50:21;;;;;;;2.53;2.17;;;17.60;99.90;;;;;;4970753;28;20050;-82
2023/09/21 02:52:54;;;;;;;3.08;1.70;;;17.90;99.90;;;;;;4971621;28;20046;-82
2023/09/21 02:55:21;;;;;;;3.45;2.00;;;17.80;99.90;;;;;;4976185;28;20061;-81
2023/09/21 02:57:49;;;;;;;3.00;1.83;;;17.70;99.90;;;;;;4970207;28;20065;-82
2023/09/21 03:00:26;;;;;;;4.78;2.28;;;17.50;99.90;;;;;;4988321;28;20043;-82
2023/09/21 03:02:55;;;;;;;2.67;2.00;;;17.90;99.90;;;;;;4988797;28;20038;-82
2023/09/21 03:05:25;;;;;;;3.55;2.00;;;18.20;99.90;;;;;;4970192;28;20050;-82
2023/09/21 03:07:51;;;;;;;3.10;2.08;;;17.70;99.90;;;;;;4971625;28;20058;-81
2023/09/21 03:10:17;;;;;;;4.47;1.85;;;18.10;99.90;;;;;;4969519;28;20506;-82
2023/09/21 03:12:43;;;;;;;1.98;1.80;;;17.70;99.90;;;;;;4960602;28;20058;-80
2023/09/21 03:15:16;;;;;;;2.40;2.10;;;17.50;99.90;;;;;;4969985;28;20058;-82
2023/09/21 03:17:42;;;;;;;4.75;1.90;;;17.90;99.90;;;;;;4971283;28;20346;-82
2023/09/21 03:20:13;;;;;;;7.57;2.15;;;17.80;99.90;;;;;;4989742;28;20066;-83
2023/09/21 03:22:41;;;;;;;4.30;2.30;;;17.90;99.90;;;;;;4971959;28;20046;-83
2023/09/21 03:25:16;;;;;;;2.78;1.98;;;17.50;99.90;;;;;;4989091;28;20413;-82
2023/09/21 03:27:42;;;;;;;4.60;2.20;;;17.90;99.90;;;;;;4989054;28;20156;-83
2023/09/21 03:30:20;;;;;;;5.50;2.40;;;17.40;99.90;;;;;;4978461;28;20037;-82
2023/09/21 03:32:49;;;;;;;5.47;2.33;;;17.80;99.90;;;;;;4963049;28;20134;-82
2023/09/21 03:35:16;;;;;;;5.97;2.42;;;17.60;99.90;;;;;;4973012;28;20648;-81
2023/09/21 03:37:43;;;;;;;2.50;1.90;;;17.60;99.90;;;;;;4955349;28;20046;-82
2023/09/21 03:40:10;;;;;;;2.80;1.77;;;17.40;99.90;;;;;;4988627;28;20046;-82
2023/09/21 03:42:36;;;;;;;3.10;2.00;;;17.80;99.90;;;;;;4988956;28;20478;-83
2023/09/21 03:45:03;;;;;;;4.00;1.95;;;17.30;99.90;;;;;;4989566;28;20068;-82
2023/09/21 03:47:29;;;;;;;3.50;2.05;;;17.40;99.90;;;;;;4986198;28;20123;-82
2023/09/21 03:49:56;;;;;;;2.85;1.83;;;17.30;99.90;;;;;;4988142;28;20102;-82
2023/09/21 03:52:22;;;;;;;2.50;1.98;;;17.50;99.90;;;;;;4984028;28;20054;-82
2023/09/21 03:54:48;;;;;;;3.25;1.90;;;17.50;99.90;;;;;;4984530;28;20073;-81
2023/09/21 03:57:19;;;;;;;2.75;2.03;;;17.30;99.90;;;;;;4988877;28;20478;-81
2023/09/21 03:59:46;;;;;;;4.30;2.20;;;17.50;99.90;;;;;;4988458;28;20054;-81
2023/09/21 04:02:17;;;;;;;3.17;2.28;;;17.70;99.90;;;;;;4970065;28;20047;-83
2023/09/21 04:04:44;;;;;;;3.40;2.00;;;17.60;99.90;;;;;;4987615;28;20078;-82
2023/09/21 04:07:12;;;;;;;2.47;1.98;;;17.40;99.90;;;;;;4970035;28;20077;-83
2023/09/21 04:09:39;;;;;;;2.53;2.20;;;18.30;99.90;;;;;;4956561;28;20046;-82
2023/09/21 04:12:05;;;;;;;5.95;2.30;;;17.30;99.90;;;;;;4967004;28;20057;-82
2023/09/21 04:14:30;;;;;;;3.72;2.15;;;17.80;99.90;;;;;;4988074;28;20613;-82
2023/09/21 04:16:56;;;;;;;3.97;2.00;;;17.50;99.90;;;;;;4967558;28;20051;-82
2023/09/21 04:19:22;;;;;;;3.17;1.73;;;17.50;99.90;;;;;;4970213;28;20133;-83
2023/09/21 04:21:48;;;;;;;2.72;2.10;;;17.10;99.90;;;;;;4958158;28;20402;-83
2023/09/21 04:24:14;;;;;;;3.45;2.00;;;17.30;99.90;;;;;;4966514;28;20108;-82
2023/09/21 04:26:40;;;;;;;4.00;2.15;;;17.40;99.90;;;;;;4967766;28;20035;-83
2023/09/21 04:29:07;;;;;;;3.35;1.80;;;17.70;99.90;;;;;;4970099;28;20043;-83
2023/09/21 04:31:32;;;;;;;2.65;1.88;;;17.10;99.90;;;;;;4968255;28;20051;-83
2023/09/21 04:33:58;;;;;;;3.63;2.03;;;17.20;99.90;;;;;;4967625;28;20051;-82
2023/09/21 04:36:24;;;;;;;3.60;2.15;;;17.80;99.90;;;;;;4966715;28;20391;-83
2023/09/21 04:38:51;;;;;;;4.25;2.10;;;17.20;99.90;;;;;;4949344;28;20075;-83
2023/09/21 04:41:16;;;;;;;3.60;2.17;;;18.30;99.90;;;;;;4960410;28;20047;-83
2023/09/21 04:43:43;;;;;;;4.03;2.15;;;17.60;99.90;;;;;;4968843;28;20051;-83
2023/09/21 04:46:11;;;;;;;3.15;2.00;;;18.20;99.90;;;;;;4967198;28;20498;-82
2023/09/21 04:48:37;;;;;;;2.33;1.92;;;17.40;99.90;;;;;;4965605;28;20042;-83
2023/09/21 04:51:03;;;;;;;2.90;2.28;;;17.00;99.90;;;;;;4968000;28;20053;-82
2023/09/21 04:53:29;;;;;;;3.47;2.15;;;17.20;99.90;;;;;;4949260;28;20503;-83
2023/09/21 04:55:55;;;;;;;4.47;2.28;;;17.10;99.90;;;;;;4968520;28;20050;-80
2023/09/21 04:58:23;;;;;;;3.75;2.20;;;17.40;99.90;;;;;;4966994;28;20054;-81
2023/09/21 05:00:49;;;;;;;2.83;2.20;;;17.50;99.90;;;;;;4972050;28;20046;-82
2023/09/21 05:03:15;;;;;;;3.53;1.92;;;17.10;99.90;;;;;;4968596;28;20046;-82
2023/09/21 05:05:40;;;;;;;5.03;2.10;;;17.40;99.90;;;;;;4969781;28;20066;-81
2023/09/21 05:08:06;;;;;;;3.80;2.15;;;16.80;99.90;;;;;;4970085;28;20046;-82
2023/09/21 05:10:32;;;;;;;4.22;2.20;;;17.40;99.90;;;;;;4970759;28;20043;-81
2023/09/21 05:12:57;;;;;;;3.83;1.80;;;17.20;99.90;;;;;;4972642;28;20183;-82
2023/09/21 05:15:24;;;;;;;4.57;2.30;;;17.20;99.90;;;;;;4972966;28;20058;-81
2023/09/21 05:17:49;;;;;;;3.70;2.08;;;17.20;99.90;;;;;;4972824;28;20047;-82
2023/09/21 05:20:15;;;;;;;3.75;2.30;;;17.50;99.90;;;;;;4989968;28;20049;-81
2023/09/21 05:22:42;;;;;;;3.65;2.10;;;18.00;99.90;;;;;;4967214;28;20060;-80
2023/09/21 05:25:09;;;;;;;3.03;2.00;;;18.00;99.90;;;;;;4980783;28;20112;-81
2023/09/21 05:27:36;;;;;;;2.42;2.00;;;17.50;99.90;;;;;;4991117;28;20101;-81
2023/09/21 05:30:19;;;;;;;3.30;1.90;;;17.90;99.90;;;;;;4990772;28;20038;-81
2023/09/21 05:32:44;;;;;;;3.22;1.90;;;17.40;99.90;;;;;;4991854;28;20128;-81
2023/09/21 05:35:15;;;;;;;3.75;1.90;;;18.70;99.90;;;;;;4958281;28;20482;-81
2023/09/21 05:37:41;;;;;;;3.53;2.10;;;17.90;99.90;;;;;;4990293;28;20097;-81
2023/09/21 05:40:11;;;;;;;3.28;1.90;;;17.60;99.90;;;;;;4991302;28;20046;-81
2023/09/21 05:42:45;;;;;;;5.25;2.25;;;17.90;99.90;;;;;;4990613;28;20046;-81
2023/09/21 05:45:11;;;;;;;8.40;2.35;;;17.80;99.90;;;;;;4990912;28;20034;-80
2023/09/21 05:47:37;;;;;;;2.60;2.13;;;17.80;99.90;;;;;;4990356;28;20046;-81
2023/09/21 05:50:06;;;;;;;4.47;1.98;;;18.60;99.90;;;;;;4989298;28;20053;-81
2023/09/21 05:52:35;;;;;;;2.78;2.10;;;18.10;99.90;;;;;;4991858;28;20050;-81
2023/09/21 05:55:02;;;;;;;2.60;1.83;;;17.90;99.90;;;;;;4972844;28;20042;-81
2023/09/21 05:57:28;;;;;;;3.60;2.10;;;18.90;99.90;;;;;;4990072;28;22021;-81
2023/09/21 05:59:54;;;;;;;2.83;2.00;;;18.20;99.90;;;;;;4989370;28;20517;-82
2023/09/21 06:02:23;;;;;;;2.22;2.03;;;18.40;99.90;;;;;;4972931;28;20097;-82
2023/09/21 06:04:49;;;;;;;2.97;2.00;;;16.80;99.90;;;;;;4954878;28;20070;-83
2023/09/21 06:07:17;;;;;;;2.80;2.00;;;18.10;99.90;;;;;;4987888;28;20077;-82
2023/09/21 06:09:48;;;;;;;3.22;1.85;;;18.10;99.90;;;;;;4971966;28;20054;-82
2023/09/21 06:12:13;;;;;;;3.53;2.10;;;18.00;99.90;;;;;;4988949;28;20050;-82
2023/09/21 06:14:41;;;;;;;3.03;2.15;;;18.40;99.90;;;;;;4989870;28;20096;-82
2023/09/21 06:17:07;;;;;;;2.40;2.03;;;18.30;99.90;;;;;;4989519;28;20057;-82
2023/09/21 06:19:34;;;;;;;2.85;2.45;;;18.80;99.90;;;;;;4985311;28;20422;-82
2023/09/21 06:22:00;;;;;;;4.95;2.38;;;18.80;99.90;;;;;;4979379;28;20779;-80
2023/09/21 06:24:25;;;;;;;2.92;2.30;;;18.60;99.90;;;;;;4990586;28;20133;-80
2023/09/21 06:26:54;;;;;;;5.43;2.30;;;18.60;99.90;;;;;;4956315;28;20061;-80
2023/09/21 06:29:23;;;;;;;2.75;2.10;;;19.20;99.90;;;;;;4990441;28;20509;-81
2023/09/21 06:31:54;;;;;;;3.58;2.42;;;19.30;99.90;;;;;;4981089;28;20049;-81
2023/09/21 06:34:24;;;;;;;2.40;2.20;;;18.50;99.90;;;;;;5001793;28;20077;-81
2023/09/21 06:36:51;;;;;;;6.30;2.40;;;18.20;99.90;;;;;;4999858;28;20038;-80
2023/09/21 06:39:17;;;;;;;3.50;1.88;;;18.40;99.90;;;;;;5009798;28;20500;-81
2023/09/21 06:41:44;;;;;;;5.85;2.33;;;18.20;99.90;;;;;;5001623;28;20050;-81
2023/09/21 06:44:10;;;;;;;4.50;2.20;;;19.40;99.90;;;;;;4962774;28;20081;-81
2023/09/21 06:46:36;;;;;;;3.72;1.90;;;18.70;99.90;;;;;;4975863;28;20050;-80
2023/09/21 06:49:16;;;;;;;;;;;;;;;;;;;;;
2023/09/21 06:51:45;;;;;;;4.72;2.42;;;18.50;99.90;;;;;;4988715;28;20468;-81
2023/09/21 06:54:11;;;;;;;3.40;1.90;;;18.50;99.90;;;;;;4988760;28;20128;-81
2023/09/21 06:56:37;;;;;;;2.90;2.20;;;19.00;99.90;;;;;;4970580;28;20379;-81
2023/09/21 06:59:06;;;;;;;4.20;2.42;;;18.40;99.90;;;;;;4969338;28;20496;-81
2023/09/21 07:01:33;;;;;;;3.60;1.90;;;18.40;99.90;;;;;;4987336;28;20054;-83
2023/09/21 07:03:58;;;;;;;3.58;2.15;;;18.90;99.90;;;;;;4989057;28;20093;-83
2023/09/21 07:06:24;;;;;;;2.97;1.98;;;18.50;99.90;;;;;;4971785;28;20093;-83
2023/09/21 07:08:50;;;;;;;4.80;2.45;;;18.80;99.90;;;;;;4970935;28;20054;-82
2023/09/21 07:11:18;;;;;;;6.45;2.70;;;18.70;99.90;;;;;;4970696;28;20053;-82
2023/09/21 07:13:45;;;;;;;3.63;2.30;;;18.90;99.90;;;;;;4971271;28;20065;-82
2023/09/21 07:16:10;;;;;;;3.50;2.25;;;18.80;99.90;;;;;;4988332;28;20421;-82
2023/09/21 07:18:37;;;;;;;5.75;2.40;;;18.40;99.90;;;;;;4970710;28;20054;-83
2023/09/21 07:21:02;;;;;;;4.03;2.20;;;18.40;99.90;;;;;;4970865;28;20045;-83
2023/09/21 07:23:28;;;;;;;2.72;2.05;;;18.40;99.90;;;;;;4970560;28;20046;-83
2023/09/21 07:25:55;;;;;;;4.53;2.20;;;18.40;99.90;;;;;;4970132;28;20049;-82
2023/09/21 07:28:21;;;;;;;2.50;2.20;;;18.40;99.90;;;;;;4988945;28;20138;-82
2023/09/21 07:30:51;;;;;;;3.20;2.25;;;18.40;99.90;;;;;;4988844;28;20046;-81
2023/09/21 07:33:16;;;;;;;2.92;2.22;;;18.50;99.90;;;;;;4988391;28;20581;-82
2023/09/21 07:35:42;;;;;;;5.95;2.40;;;18.60;99.90;;;;;;4970708;28;20130;-81
2023/09/21 07:38:07;;;;;;;4.85;2.53;;;18.60;99.90;;;;;;4988071;28;20159;-82
2023/09/21 07:40:33;;;;;;;2.65;2.10;;;18.70;99.90;;;;;;4970373;28;20038;-82
2023/09/21 07:42:58;;;;;;;2.45;2.20;;;18.80;99.90;;;;;;4971225;28;20611;-83
2023/09/21 07:45:24;;;;;;;2.85;2.17;;;19.40;99.90;;;;;;4988491;28;20050;-83
2023/09/21 07:47:50;;;;;;;4.30;2.60;;;18.90;99.90;;;;;;4954588;28;20078;-82
2023/09/21 07:50:18;;;;;;;3.97;2.58;;;19.00;99.90;;;;;;4987612;28;20046;-83
2023/09/21 07:52:45;;;;;;;4.03;2.55;;;19.00;99.90;;;;;;4970127;28;20125;-85
2023/09/21 07:55:11;;;;;;;3.70;2.08;;;19.00;99.90;;;;;;4988026;28;20665;-83
2023/09/21 07:57:38;;;;;;;5.30;2.42;;;19.00;99.90;;;;;;4970575;28;20126;-82
2023/09/21 08:00:05;;;;;;;3.25;2.30;;;18.90;99.90;;;;;;4987932;28;20421;-83
2023/09/21 08:02:31;;;;;;;4.13;2.80;;;18.80;99.90;;;;;;4987914;28;20035;-83
2023/09/21 08:04:57;;;;;;;3.95;2.67;;;18.80;99.90;;;;;;4969976;28;20042;-81
2023/09/21 08:07:26;;;;;;;4.97;3.13;;;18.70;99.90;;;;;;4988061;28;20049;-82
2023/09/21 08:09:56;;;;;;;5.95;2.38;;;18.60;99.90;;;;;;4970185;28;20077;-82
2023/09/21 08:12:24;;;;;;;3.38;2.35;;;19.00;99.90;;;;;;4953694;28;20441;-82
2023/09/21 08:14:50;;;;;;;3.55;2.55;;;18.50;99.90;;;;;;4970147;28;20049;-81
2023/09/21 08:17:15;;;;;;;4.65;2.75;;;18.40;99.90;;;;;;4987605;28;20064;-81
2023/09/21 08:19:41;;;;;;;4.57;2.90;;;18.40;99.90;;;;;;4969188;28;20129;-81
2023/09/21 08:22:07;;;;;;;3.83;2.70;;;18.40;99.90;;;;;;4985519;28;20073;-80
2023/09/21 08:24:36;;;;;;;2.80;2.53;;;18.40;99.90;;;;;;4986505;28;20125;-81
2023/09/21 08:27:05;;;;;;;4.40;2.70;;;18.40;99.90;;;;;;4986317;28;20057;-82
2023/09/21 08:29:30;;;;;;;5.60;2.70;;;18.40;99.90;;;;;;4986631;28;20502;-81
2023/09/21 08:31:57;;;;;;;4.97;2.63;;;18.40;99.90;;;;;;4985969;28;20049;-81
2023/09/21 08:34:22;;;;;;;3.35;2.50;;;18.40;99.90;;;;;;4988315;28;20046;-81
2023/09/21 08:36:48;;;;;;;3.65;2.97;;;18.40;99.90;;;;;;4974192;28;20052;-80
2023/09/21 08:39:14;;;;;;;3.78;2.58;;;18.40;99.90;;;;;;4991644;28;20038;-81
2023/09/21 08:41:47;;;;;;;6.47;2.63;;;18.50;99.90;;;;;;4990602;28;20038;-80
2023/09/21 08:44:13;;;;;;;;;;;18.50;99.90;;;;;;4991975;28;20038;-81
2023/09/21 08:46:40;;;;;;;2.97;2.40;;;18.50;99.90;;;;;;4990641;28;20389;-81
2023/09/21 08:49:07;;;;;;;4.47;2.50;;;18.50;99.90;;;;;;4973763;28;20096;-81
2023/09/21 08:51:37;;;;;;;5.80;2.80;;;18.50;99.90;;;;;;4974058;28;20108;-80
2023/09/21 08:54:05;;;;;;;3.83;2.70;;;18.50;99.90;;;;;;4991164;28;20065;-80
2023/09/21 08:56:33;;;;;;;5.25;3.03;;;18.40;99.90;;;;;;4990422;28;20042;-80
2023/09/21 08:59:00;;;;;;;5.85;3.90;;;18.40;99.90;;;;;;4991093;28;20042;-80
2023/09/21 09:01:27;;;;;;;3.15;2.85;;;18.40;99.90;;;;;;5005407;28;20049;-81
2023/09/21 09:03:53;;;;;;;5.20;3.05;;;18.30;99.90;;;;;;4994092;28;20129;-81
2023/09/21 09:06:19;;;;;;;3.55;2.50;;;18.30;99.90;;;;;;4991059;28;20042;-81
2023/09/21 09:08:46;;;;;;;4.03;2.88;;;18.30;99.90;;;;;;4990595;28;20153;-80
2023/09/21 09:11:38;;;;;;;3.22;2.78;;;18.30;99.90;;;;;;4956690;28;20481;-81
2023/09/21 09:14:11;;;;;;;3.30;2.80;;;18.30;99.90;;;;;;4957373;28;20136;-81
2023/09/21 09:16:36;;;;;;;3.20;2.90;;;18.30;99.90;;;;;;4990718;28;20066;-81
2023/09/21 09:19:05;;;;;;;3.90;2.60;;;18.30;99.90;;;;;;4990507;28;20074;-80
2023/09/21 09:21:30;;;;;;;8.20;2.95;;;18.20;99.90;;;;;;4956719;28;20073;-81
2023/09/21 09:23:56;;;;;;;4.07;2.85;;;18.20;99.90;;;;;;4990641;28;20532;-81
2023/09/21 09:26:22;;;;;;;3.90;3.10;;;18.20;99.90;;;;;;4953257;28;20050;-81
2023/09/21 09:28:48;;;;;;;4.75;3.08;;;18.20;99.90;;;;;;4971102;28;20051;-81
2023/09/21 09:31:20;;;;;;;6.03;3.00;;;18.10;99.90;;;;;;4970690;28;20055;-81
2023/09/21 09:33:47;;;;;;;;;;;18.10;99.90;;;;;;4971813;28;20051;-80
2023/09/21 09:36:13;;;;;;;4.72;3.10;;;18.10;99.90;;;;;;4971203;28;19922;-80
2023/09/21 09:38:39;;;;;;;4.57;3.00;;;18.00;99.90;;;;;;4948000;28;20417;-80
2023/09/21 09:41:04;;;;;;;3.67;2.78;;;17.90;99.90;;;;;;4990216;28;20038;-80
2023/09/21 09:43:31;;;;;;;4.28;3.13;;;17.90;99.90;;;;;;4989973;28;20054;-81
2023/09/21 09:46:00;;;;;;;3.55;3.13;;;17.90;99.90;;;;;;4990085;28;20058;-80
2023/09/21 09:48:28;;;;;;;4.38;3.03;;;17.90;99.90;;;;;;4990194;28;20062;-82
2023/09/21 09:50:55;;;;;;;3.15;2.83;;;17.90;99.90;;;;;;4989796;28;20056;-81
2023/09/21 09:53:23;;;;;;;3.85;3.15;;;17.90;99.90;;;;;;4972528;28;20059;-81
2023/09/21 09:55:53;;;;;;;4.25;3.05;;;17.80;99.90;;;;;;4972110;28;20092;-82
2023/09/21 09:58:19;;;;;;;4.55;3.28;;;17.70;99.90;;;;;;4972767;28;20060;-81
2023/09/21 10:00:45;;;;;;;4.45;3.58;;;18.10;99.90;;;;;;4990124;28;20078;-81
2023/09/21 10:03:12;;;;;;;3.75;3.38;;;17.70;99.90;;;;;;4990514;28;20054;-81
2023/09/21 10:05:42;;;;;;;4.32;3.20;;;17.60;99.90;;;;;;4989991;28;20161;-81
2023/09/21 10:08:08;;;;;;;3.50;3.17;;;17.50;99.90;;;;;;4990010;28;20054;-81
2023/09/21 10:10:44;;;;;;;3.92;3.03;;;17.40;99.90;;;;;;4972060;28;20634;-81
2023/09/21 10:13:10;;;;;;;1.80;1.50;;;17.30;99.90;;;;;;4989681;28;20050;-81
2023/09/21 10:15:36;;;;;;;1.75;1.20;;;17.20;99.90;;;;;;4990008;28;20070;-82
2023/09/21 10:18:01;;;;;;;1.25;1.15;;;17.00;99.90;;;;;;4971589;28;20054;-81
2023/09/21 10:20:32;;;;;;;1.30;1.20;;;16.90;99.90;;;;;;4990045;28;20038;-81
2023/09/21 10:23:01;;;;;;;1.80;1.10;;;16.90;99.90;;;;;;4989609;28;20359;-81
2023/09/21 10:25:42;;;;;;;2.75;1.20;;;16.80;99.90;;;;;;4981862;28;20469;-81
2023/09/21 10:28:27;;;;;;;1.30;1.02;;;16.80;99.90;;;;;;4988510;28;20101;-80
2023/09/21 10:30:54;;;;;;;1.70;1.10;;;16.70;99.90;;;;;;4983715;28;20046;-81
2023/09/21 10:33:20;;;;;;;1.33;0.95;;;16.70;99.90;;;;;;4968513;28;20054;-81
2023/09/21 10:35:46;;;;;;;1.05;0.82;;;16.70;99.90;;;;;;4969319;28;20045;-81
2023/09/21 10:38:16;;;;;;;1.25;0.90;;;16.70;99.90;;;;;;4969417;28;20173;-81
2023/09/21 10:40:42;;;;;;;1.10;1.00;;;16.60;99.90;;;;;;4987642;28;20674;-82
2023/09/21 10:43:44;;;;;;;1.50;0.90;;;16.60;99.90;;;;;;4985703;28;20082;-82
2023/09/21 10:46:31;;;;;;;1.38;0.90;;;16.60;99.90;;;;;;4917572;29;20044;-81
2023/09/21 10:49:02;;;;;;;1.33;0.98;;;16.60;99.90;;;;;;4984695;28;20058;-81
2023/09/21 10:51:28;;;;;;;1.05;0.80;;;16.60;99.90;;;;;;4987578;28;20046;-80
2023/09/21 10:53:58;;;;;;;1.92;0.60;;;16.60;99.90;;;;;;4988806;28;20058;-80
2023/09/21 10:56:23;;;;;;;2.38;0.70;;;16.70;99.90;;;;;;4988406;28;20030;-80
2023/09/21 10:58:49;;;;;;;1.25;0.95;;;16.60;99.90;;;;;;4968428;28;20046;-80
2023/09/21 11:01:18;;;;;;;0.70;0.60;;;16.60;99.90;;;;;;4969644;28;20151;-80
2023/09/21 11:03:47;;;;;;;0.85;0.63;;;16.60;99.90;;;;;;4961705;28;20049;-81
2023/09/21 11:06:16;;;;;;;0.98;0.60;;;16.60;99.90;;;;;;4988284;28;20096;-80
2023/09/21 11:08:42;;;;;;;1.05;0.60;;;16.60;99.90;;;;;;4988178;28;20161;-80
2023/09/21 11:11:12;;;;;;;1.42;0.60;;;16.60;99.90;;;;;;4970937;28;20138;-82
2023/09/21 11:13:41;;;;;;;0.90;0.77;;;16.60;99.90;;;;;;4988392;28;20047;-82
2023/09/21 11:16:09;;;;;;;1.42;0.88;;;16.60;99.90;;;;;;4987522;28;20066;-82
2023/09/21 11:18:35;;;;;;;1.40;0.80;;;16.70;99.90;;;;;;4970644;28;20575;-81
2023/09/21 11:21:03;;;;;;;1.42;0.88;;;16.70;99.90;;;;;;4952477;28;20088;-82
2023/09/21 11:23:31;;;;;;;0.80;0.70;;;16.70;99.90;;;;;;4953809;28;20498;-81
2023/09/21 11:25:59;;;;;;;1.35;0.80;;;16.70;99.90;;;;;;4966532;28;20532;-81
2023/09/21 11:28:24;;;;;;;1.92;0.60;;;16.70;99.90;;;;;;4956447;28;20502;-81
2023/09/21 11:30:51;;;;;;;0.90;0.70;;;16.10;99.90;;;;;;4968871;28;20088;-82
2023/09/21 11:33:19;;;;;;;3.67;0.77;;;16.90;99.90;;;;;;4987317;28;20058;-83
2023/09/21 11:35:45;;;;;;;1.77;0.80;;;16.60;99.90;;;;;;4970422;28;20057;-83
2023/09/21 11:38:12;;;;;;;0.85;0.63;;;16.70;99.90;;;;;;4971082;28;20058;-83
2023/09/21 11:40:38;;;;;;;1.23;0.70;;;16.80;99.90;;;;;;4970293;28;20054;-81
2023/09/21 11:43:04;;;;;;;0.60;0.60;;;16.80;99.90;;;;;;4987672;28;20394;-82
2023/09/21 11:45:34;;;;;;;0.90;0.65;;;16.80;99.90;;;;;;4969301;28;20058;-82
2023/09/21 11:48:00;;;;;;;1.67;0.60;;;16.90;99.90;;;;;;4970264;28;20169;-82
2023/09/21 11:50:30;;;;;;;1.27;0.73;;;17.20;99.90;;;;;;4970697;28;20547;-83
2023/09/21 11:52:56;;;;;;;0.88;0.60;;;17.00;99.90;;;;;;4969236;28;20049;-81
2023/09/21 11:55:27;;;;;;;0.60;0.60;;;16.90;99.90;;;;;;4968593;28;20050;-82
2023/09/21 11:58:08;;;;;;;1.10;0.67;;;16.90;99.90;;;;;;4954452;28;20484;-82
2023/09/21 12:01:24;;;;;;;1.35;0.70;;;16.90;99.90;;;;;;4970973;28;20042;-82
2023/09/21 12:03:25;;;;;;;0.70;0.65;;;16.90;99.90;;;;;;4957701;28;20859;-81
2023/09/21 12:05:51;;;;;;;0.85;0.60;;;16.80;99.90;;;;;;4977546;28;20053;-82
2023/09/21 12:08:19;;;;;;;0.70;0.60;;;16.60;99.90;;;;;;4971744;28;20214;-81
2023/09/21 12:10:46;;;;;;;1.35;0.60;;;16.60;99.90;;;;;;4957804;28;20058;-81
2023/09/21 12:13:23;;;;;;;1.70;0.73;;;16.50;99.90;;;;;;4974550;28;20855;-81
2023/09/21 12:15:52;;;;;;;0.70;0.70;;;16.50;99.90;;;;;;4973011;28;20058;-81
2023/09/21 12:18:19;;;;;;;5.18;0.90;;;16.40;99.90;;;;;;4974305;28;20156;-81
2023/09/21 12:20:49;;;;;;;2.00;0.70;;;16.40;99.90;;;;;;4958854;28;20061;-82
2023/09/21 12:23:15;;;;;;;1.77;0.90;;;16.40;99.90;;;;;;4973031;28;20081;-82
2023/09/21 12:25:41;;;;;;;0.73;0.60;;;16.30;99.90;;;;;;4960974;28;20549;-82
2023/09/21 12:28:09;;;;;;;0.90;0.60;;;16.30;99.90;;;;;;4975579;28;20058;-83
2023/09/21 12:30:37;;;;;;;0.80;0.80;;;16.30;99.90;;;;;;4975549;28;20042;-82
2023/09/21 12:33:03;;;;;;;0.90;0.60;;;16.70;99.90;;;;;;4976046;28;20054;-82
2023/09/21 12:35:30;;;;;;;1.20;0.63;;;16.20;99.90;;;;;;4974606;28;20050;-83
2023/09/21 12:37:56;;;;;;;1.20;0.70;;;16.10;99.90;;;;;;4975194;28;20105;-83
2023/09/21 12:40:22;;;;;;;0.93;0.82;;;16.10;99.90;;;;;;4989559;28;20437;-83
2023/09/21 12:42:47;;;;;;;0.80;0.75;;;16.00;99.90;;;;;;4974260;28;20101;-83
2023/09/21 12:45:17;;;;;;;1.83;0.95;;;16.10;99.90;;;;;;4991989;28;20129;-83
2023/09/21 12:47:48;;;;;;;1.23;0.70;;;16.10;99.90;;;;;;4974177;28;20062;-83
2023/09/21 12:50:15;;;;;;;0.68;0.68;;;16.10;99.90;;;;;;4958410;28;20042;-83
2023/09/21 12:52:42;;;;;;;0.60;0.60;;;16.20;99.90;;;;;;4991494;28;20069;-82